Time;durP1;ratioP1;P1;durP2;ratioP2;P2;SDS_P1;SDS_P2;PMS_P1;PMS_P2;Temp;Humidity;BMP_temperature;BMP_pressure;BME280_temperature;BME280_humidity;BME280_pressure;Samples;Min_cycle;Max_cycle;Signal;HPM_P1;HPM_P2
2023/07/21 00:01:39;;;;;;;;;;;;;;;;;;6147460;23;20006;-90
2023/07/21 00:04:05;;;;;;;;;;;;;;;;;;6171254;23;19920;-90
2023/07/21 00:06:31;;;;;;;;;;;;;;;;;;6173744;23;19920;-90
2023/07/21 00:08:57;;;;;;;;;;;;;;;;;;6148273;23;19920;-90
2023/07/21 00:11:23;;;;;;;;;;;;;;;;;;6170852;23;19927;-90
2023/07/21 00:13:49;;;;;;;;;;;;;;;;;;6172274;23;19920;-90
2023/07/21 00:16:18;;;;;;;;;;;;;;;;;;6171036;23;19966;-90
2023/07/21 00:18:46;;;;;;;;;;;;;;;;;;6175663;23;19923;-90
2023/07/21 00:21:12;;;;;;;;;;;;;;;;;;6170415;23;20325;-90
2023/07/21 00:23:38;;;;;;;;;;;;;;;;;;6174748;23;19925;-90
2023/07/21 00:26:04;;;;;;;;;;;;;;;;;;6144028;23;19942;-90
2023/07/21 00:28:30;;;;;;;;;;;;;;;;;;6169908;23;19971;-90
2023/07/21 00:30:56;;;;;;;;;;;;;;;;;;6169675;23;19935;-90
2023/07/21 00:33:24;;;;;;;;;;;;;;;;;;6141582;23;20304;-90
2023/07/21 00:35:50;;;;;;;;;;;;;;;;;;6146007;23;20326;-90
2023/07/21 00:38:16;;;;;;;;;;;;;;;;;;6167456;23;19920;-90
2023/07/21 00:40:42;;;;;;;;;;;;;;;;;;6146133;23;19920;-90
2023/07/21 00:43:16;;;;;;;;;;;;;;;;;;6168159;23;19931;-90
2023/07/21 00:45:42;;;;;;;;;;;;;;;;;;6144239;23;19927;-90
2023/07/21 00:48:08;;;;;;;;;;;;;;;;;;6141495;23;19920;-90
2023/07/21 00:50:37;;;;;;;;;;;;;;;;;;6145946;23;19983;-90
2023/07/21 00:53:05;;;;;;;;;;;;;;;;;;6169906;23;19920;-90
2023/07/21 00:55:31;;;;;;;;;;;;;;;;;;6147690;23;20265;-90
2023/07/21 00:57:57;;;;;;;;;;;;;;;;;;6174943;23;19924;-90
2023/07/21 01:00:24;;;;;;;;;;;;;;;;;;6146530;23;20381;-90
2023/07/21 01:02:50;;;;;;;;;;;;;;;;;;6151863;23;20004;-90
2023/07/21 01:05:17;;;;;;;;;;;;;;;;;;6147813;23;19952;-90
2023/07/21 01:07:43;;;;;;;;;;;;;;;;;;6150052;23;19988;-90
2023/07/21 01:10:09;;;;;;;;;;;;;;;;;;6146751;23;19959;-90
2023/07/21 01:12:35;;;;;;;;;;;;;;;;;;6173967;23;19920;-89
2023/07/21 01:15:01;;;;;;;;;;;;;;;;;;6146598;23;19943;-90
2023/07/21 01:17:30;;;;;;;;;;;;;;;;;;6149839;23;19920;-89
2023/07/21 01:19:56;;;;;;;;;;;;;;;;;;6151230;23;20349;-90
2023/07/21 01:22:23;;;;;;;;;;;;;;;;;;6146727;23;19999;-90
2023/07/21 01:24:49;;;;;;;;;;;;;;;;;;6144274;23;20332;-90
2023/07/21 01:27:15;;;;;;;;;;;;;;;;;;6143896;23;19920;-90
2023/07/21 01:29:41;;;;;;;;;;;;;;;;;;6146281;23;20015;-90
2023/07/21 01:32:10;;;;;;;;;;;;;;;;;;6167976;23;19960;-90
2023/07/21 01:34:36;;;;;;;;;;;;;;;;;;6171661;23;19920;-90
2023/07/21 01:37:02;;;;;;;;;;;;;;;;;;6144853;23;19927;-90
2023/07/21 01:39:29;;;;;;;;;;;;;;;;;;6146833;23;20336;-89
2023/07/21 01:41:55;;;;;;;;;;;;;;;;;;6146149;23;19920;-90
2023/07/21 01:44:24;;;;;;;;;;;;;;;;;;6143100;23;19931;-90
2023/07/21 01:46:52;;;;;;;;;;;;;;;;;;6170607;23;19920;-90
2023/07/21 01:49:18;;;;;;;;;;;;;;;;;;6168245;23;20759;-89
2023/07/21 01:51:44;;;;;;;;;;;;;;;;;;6171438;23;19928;-90
2023/07/21 01:54:10;;;;;;;;;;;;;;;;;;6145377;23;19926;-90
2023/07/21 01:56:36;;;;;;;;;;;;;;;;;;6172791;23;19939;-90
2023/07/21 01:59:02;;;;;;;;;;;;;;;;;;6169505;23;19920;-90
2023/07/21 02:01:28;;;;;;;;;;;;;;;;;;6175971;23;19978;-90
2023/07/21 02:03:54;;;;;;;;;;;;;;;;;;6151377;23;20285;-90
2023/07/21 02:06:20;;;;;;;;;;;;;;;;;;6170953;23;19924;-90
2023/07/21 02:08:46;;;;;;;;;;;;;;;;;;6149928;23;19971;-90
2023/07/21 02:11:12;;;;;;;;;;;;;;;;;;6147178;23;19923;-90
2023/07/21 02:13:39;;;;;;;;;;;;;;;;;;6146843;23;20252;-90
2023/07/21 02:16:05;;;;;;;;;;;;;;;;;;6172614;23;19920;-90
2023/07/21 02:18:31;;;;;;;;;;;;;;;;;;6174519;23;19926;-90
2023/07/21 02:20:57;;;;;;;;;;;;;;;;;;6173523;23;20018;-90
2023/07/21 02:23:23;;;;;;;;;;;;;;;;;;6146039;23;19921;-89
2023/07/21 02:25:49;;;;;;;;;;;;;;;;;;6174655;23;20014;-90
2023/07/21 02:28:15;;;;;;;;;;;;;;;;;;6145522;23;20002;-90
2023/07/21 02:30:41;;;;;;;;;;;;;;;;;;6150051;23;20403;-90
2023/07/21 02:33:07;;;;;;;;;;;;;;;;;;6144588;23;19954;-89
2023/07/21 02:35:33;;;;;;;;;;;;;;;;;;6146712;23;19991;-90
2023/07/21 02:38:03;;;;;;;;;;;;;;;;;;6170418;23;19920;-89
2023/07/21 02:40:29;;;;;;;;;;;;;;;;;;6144467;23;19932;-90
2023/07/21 02:42:55;;;;;;;;;;;;;;;;;;6145206;23;20226;-90
2023/07/21 02:45:21;;;;;;;;;;;;;;;;;;6143301;23;19946;-90
2023/07/21 02:47:47;;;;;;;;;;;;;;;;;;6171939;23;20027;-89
2023/07/21 02:50:13;;;;;;;;;;;;;;;;;;6143628;23;20348;-90
2023/07/21 02:52:40;;;;;;;;;;;;;;;;;;6147938;23;20241;-90
2023/07/21 02:55:07;;;;;;;;;;;;;;;;;;6142299;23;19920;-90
2023/07/21 02:57:34;;;;;;;;;;;;;;;;;;6148121;23;20253;-90
2023/07/21 03:00:01;;;;;;;;;;;;;;;;;;6168268;23;19981;-90
2023/07/21 03:02:27;;;;;;;;;;;;;;;;;;6170850;23;20031;-90
2023/07/21 03:04:53;;;;;;;;;;;;;;;;;;6146904;23;20344;-90
2023/07/21 03:07:19;;;;;;;;;;;;;;;;;;6142627;23;19928;-90
2023/07/21 03:09:45;;;;;;;;;;;;;;;;;;6169415;23;20031;-89
2023/07/21 03:12:12;;;;;;;;;;;;;;;;;;6166759;23;19924;-90
2023/07/21 03:14:38;;;;;;;;;;;;;;;;;;6144549;23;19916;-91
2023/07/21 03:17:04;;;;;;;;;;;;;;;;;;6168245;23;19935;-89
2023/07/21 03:19:33;;;;;;;;;;;;;;;;;;6144155;23;20378;-90
2023/07/21 03:21:59;;;;;;;;;;;;;;;;;;6169340;23;20022;-90
2023/07/21 03:24:25;;;;;;;;;;;;;;;;;;6168507;23;19920;-90
2023/07/21 03:26:51;;;;;;;;;;;;;;;;;;6146312;23;19928;-90
2023/07/21 03:29:18;;;;;;;;;;;;;;;;;;6167053;23;20187;-89
2023/07/21 03:31:44;;;;;;;;;;;;;;;;;;6145929;23;19916;-90
2023/07/21 03:34:10;;;;;;;;;;;;;;;;;;6167508;23;19947;-90
2023/07/21 03:36:35;;;;;;;;;;;;;;;;;;6145938;23;19920;-90
2023/07/21 03:39:01;;;;;;;;;;;;;;;;;;6141846;23;19920;-89
2023/07/21 03:41:28;;;;;;;;;;;;;;;;;;6170125;23;20023;-90
2023/07/21 03:43:54;;;;;;;;;;;;;;;;;;6170634;23;19987;-90
2023/07/21 03:46:20;;;;;;;;;;;;;;;;;;6167329;23;19925;-90
2023/07/21 03:48:50;;;;;;;;;;;;;;;;;;6145037;23;20352;-89
2023/07/21 03:51:16;;;;;;;;;;;;;;;;;;6167633;23;19916;-90
2023/07/21 03:53:41;;;;;;;;;;;;;;;;;;6144738;23;19920;-90
2023/07/21 03:56:10;;;;;;;;;;;;;;;;;;6143243;23;19932;-89
2023/07/21 03:58:36;;;;;;;;;;;;;;;;;;6146517;23;20352;-90
2023/07/21 04:01:02;;;;;;;;;;;;;;;;;;6146011;23;19924;-90
2023/07/21 04:06:24;;;;;;;;;;;;;;;;;;6175255;22;19929;-84
2023/07/21 04:08:53;;;;;;;;;;;;;;;;;;6155802;23;19960;-84
2023/07/21 04:11:19;;;;;;;;;;;;;;;;;;6176424;23;20391;-84
2023/07/21 04:13:45;;;;;;;;;;;;;;;;;;6152305;23;19923;-84
2023/07/21 04:16:11;;;;;;;;;;;;;;;;;;6153305;23;20325;-84
2023/07/21 04:18:38;;;;;;;;;;;;;;;;;;6155430;23;20256;-84
2023/07/21 04:21:04;;;;;;;;;;;;;;;;;;6151361;23;19916;-85
2023/07/21 04:23:30;;;;;;;;;;;;;;;;;;6152931;23;19920;-84
2023/07/21 04:25:56;;;;;;;;;;;;;;;;;;6178382;23;19920;-84
2023/07/21 04:28:22;;;;;;;;;;;;;;;;;;6175229;23;19926;-84
2023/07/21 04:30:48;;;;;;;;;;;;;;;;;;6178271;23;19965;-84
2023/07/21 04:33:14;;;;;;;;;;;;;;;;;;6175239;23;20278;-85
2023/07/21 04:35:40;;;;;;;;;;;;;;;;;;6203619;23;20237;-85
2023/07/21 04:38:05;;;;;;;;;;;;;;;;;;6174643;23;19974;-84
2023/07/21 04:40:31;;;;;;;;;;;;;;;;;;6146765;23;19920;-84
2023/07/21 04:42:57;;;;;;;;;;;;;;;;;;6173217;23;19931;-84
2023/07/21 04:45:23;;;;;;;;;;;;;;;;;;6147654;23;20343;-84
2023/07/21 04:47:49;;;;;;;;;;;;;;;;;;6173038;23;19970;-84
2023/07/21 04:50:15;;;;;;;;;;;;;;;;;;6146981;23;19926;-84
2023/07/21 04:52:41;;;;;;;;;;;;;;;;;;6175056;23;19920;-84
2023/07/21 04:55:08;;;;;;;;;;;;;;;;;;6172549;23;19990;-84
2023/07/21 04:57:34;;;;;;;;;;;;;;;;;;6149491;23;20348;-84
2023/07/21 05:00:00;;;;;;;;;;;;;;;;;;6144016;23;19986;-84
2023/07/21 05:02:28;;;;;;;;;;;;;;;;;;6170047;23;19971;-84
2023/07/21 05:04:54;;;;;;;;;;;;;;;;;;6170539;23;19920;-84
2023/07/21 05:07:20;;;;;;;;;;;;;;;;;;6169523;23;19953;-84
2023/07/21 05:09:46;;;;;;;;;;;;;;;;;;6171640;23;19927;-84
2023/07/21 05:12:13;;;;;;;;;;;;;;;;;;6170806;23;19916;-84
2023/07/21 05:14:39;;;;;;;;;;;;;;;;;;6148394;23;19982;-84
2023/07/21 05:17:04;;;;;;;;;;;;;;;;;;6146588;23;19920;-84
2023/07/21 05:19:30;;;;;;;;;;;;;;;;;;6173094;23;19951;-84
2023/07/21 05:21:56;;;;;;;;;;;;;;;;;;6175061;23;19926;-84
2023/07/21 05:24:22;;;;;;;;;;;;;;;;;;6170737;23;19927;-85
2023/07/21 05:26:48;;;;;;;;;;;;;;;;;;6173399;23;20256;-85
2023/07/21 05:29:14;;;;;;;;;;;;;;;;;;6168766;23;19961;-84
2023/07/21 05:31:40;;;;;;;;;;;;;;;;;;6170627;23;19920;-84
2023/07/21 05:34:07;;;;;;;;;;;;;;;;;;6168509;23;19916;-84
2023/07/21 05:36:33;;;;;;;;;;;;;;;;;;6147224;23;20033;-84
2023/07/21 05:38:59;;;;;;;;;;;;;;;;;;6143894;23;19919;-84
2023/07/21 05:41:25;;;;;;;;;;;;;;;;;;6170494;23;19923;-84
2023/07/21 05:43:51;;;;;;;;;;;;;;;;;;6171121;23;19923;-84
2023/07/21 05:46:17;;;;;;;;;;;;;;;;;;6146063;23;19924;-84
2023/07/21 05:48:43;;;;;;;;;;;;;;;;;;6170526;23;19926;-84
2023/07/21 05:51:09;;;;;;;;;;;;;;;;;;6147052;23;19947;-85
2023/07/21 05:53:35;;;;;;;;;;;;;;;;;;6147923;23;19966;-84
2023/07/21 05:56:01;;;;;;;;;;;;;;;;;;6171501;23;19920;-84
2023/07/21 05:58:27;;;;;;;;;;;;;;;;;;6174292;23;19962;-84
2023/07/21 06:00:53;;;;;;;;;;;;;;;;;;6155563;23;19927;-84
2023/07/21 06:03:19;;;;;;;;;;;;;;;;;;6176254;23;20233;-84
2023/07/21 06:05:45;;;;;;;;;;;;;;;;;;6154782;23;19966;-84
2023/07/21 06:08:11;;;;;;;;;;;;;;;;;;6174203;23;19926;-84
2023/07/21 06:10:38;;;;;;;;;;;;;;;;;;6178888;23;20350;-84
2023/07/21 06:13:06;;;;;;;;;;;;;;;;;;6173607;23;19980;-85
2023/07/21 06:15:32;;;;;;;;;;;;;;;;;;6152835;23;19923;-84
2023/07/21 06:17:58;;;;;;;;;;;;;;;;;;6203951;23;20363;-85
2023/07/21 06:20:24;;;;;;;;;;;;;;;;;;6175180;23;20333;-84
2023/07/21 06:22:50;;;;;;;;;;;;;;;;;;6151887;23;20339;-85
2023/07/21 06:25:18;;;;;;;;;;;;;;;;;;6147078;23;19920;-85
2023/07/21 06:27:46;;;;;;;;;;;;;;;;;;6176937;23;20308;-85
2023/07/21 06:30:13;;;;;;;;;;;;;;;;;;6170585;23;19919;-85
2023/07/21 06:32:40;;;;;;;;;;;;;;;;;;6171232;23;19920;-85
2023/07/21 06:35:06;;;;;;;;;;;;;;;;;;6169491;23;19954;-85
2023/07/21 06:37:33;;;;;;;;;;;;;;;;;;6199469;23;19970;-85
2023/07/21 06:40:01;;;;;;;;;;;;;;;;;;6196707;23;20176;-85
2023/07/21 06:42:27;;;;;;;;;;;;;;;;;;6199830;23;20292;-85
2023/07/21 06:44:53;;;;;;;;;;;;;;;;;;6147151;23;19916;-85
2023/07/21 06:47:19;;;;;;;;;;;;;;;;;;6145977;23;20812;-85
2023/07/21 06:49:45;;;;;;;;;;;;;;;;;;6173071;23;19924;-84
2023/07/21 06:52:11;;;;;;;;;;;;;;;;;;6200247;23;19922;-85
2023/07/21 06:54:38;;;;;;;;;;;;;;;;;;6152782;23;20221;-85
2023/07/21 06:57:05;;;;;;;;;;;;;;;;;;6149028;23;19981;-85
2023/07/21 06:59:31;;;;;;;;;;;;;;;;;;6202845;23;19923;-85
2023/07/21 07:01:57;;;;;;;;;;;;;;;;;;6173295;23;19978;-85
2023/07/21 07:04:25;;;;;;;;;;;;;;;;;;6171416;23;19931;-84
2023/07/21 08:04:00;;;;;;;;;;;;;;;;;;6206397;23;19922;-86
2023/07/21 08:06:26;;;;;;;;;;;;;;;;;;6152867;23;19951;-85
2023/07/21 08:08:52;;;;;;;;;;;;;;;;;;6152861;23;19970;-85
2023/07/21 08:11:21;;;;;;;;;;;;;;;;;;6150653;23;20250;-84
2023/07/21 08:13:46;;;;;;;;;;;;;;;;;;6176857;23;19923;-85
2023/07/21 08:16:12;;;;;;;;;;;;;;;;;;6200098;23;19919;-85
2023/07/21 08:18:38;;;;;;;;;;;;;;;;;;6151249;23;20415;-84
2023/07/21 08:21:04;;;;;;;;;;;;;;;;;;6148964;23;19924;-84
2023/07/21 08:23:30;;;;;;;;;;;;;;;;;;6176763;23;19991;-85
2023/07/21 08:25:57;;;;;;;;;;;;;;;;;;6179225;23;19927;-85
2023/07/21 08:28:23;;;;;;;;;;;;;;;;;;6151261;23;19926;-85
2023/07/21 08:30:48;;;;;;;;;;;;;;;;;;6152773;23;20236;-84
2023/07/21 08:33:15;;;;;;;;;;;;;;;;;;6149942;23;19916;-85
2023/07/21 08:35:41;;;;;;;;;;;;;;;;;;6176443;23;19935;-85
2023/07/21 08:38:07;;;;;;;;;;;;;;;;;;6175991;23;20027;-85
2023/07/21 08:40:33;;;;;;;;;;;;;;;;;;6148694;23;19974;-84
2023/07/21 08:42:59;;;;;;;;;;;;;;;;;;6177144;23;20352;-84
2023/07/21 08:45:25;;;;;;;;;;;;;;;;;;6152584;23;19916;-84
2023/07/21 08:47:50;;;;;;;;;;;;;;;;;;6176572;23;19926;-84
2023/07/21 08:50:18;;;;;;;;;;;;;;;;;;6173584;23;19920;-84
2023/07/21 08:52:44;;;;;;;;;;;;;;;;;;6176853;23;20300;-85
2023/07/21 08:55:10;;;;;;;;;;;;;;;;;;6174685;23;19920;-84
2023/07/21 08:57:36;;;;;;;;;;;;;;;;;;6152122;23;19928;-84
2023/07/21 09:00:03;;;;;;;;;;;;;;;;;;6171556;23;20293;-84
2023/07/21 09:02:29;;;;;;;;;;;;;;;;;;6174237;23;19974;-85
2023/07/21 09:04:55;;;;;;;;;;;;;;;;;;6149653;23;19923;-84
2023/07/21 09:07:21;;;;;;;;;;;;;;;;;;6148132;23;20241;-85
2023/07/21 09:09:47;;;;;;;;;;;;;;;;;;6151163;23;20001;-85
2023/07/21 09:12:14;;;;;;;;;;;;;;;;;;6170875;23;19927;-84
2023/07/21 09:17:50;;;;;;;;;;;;;;;;;;6214555;23;19957;-84
2023/07/21 09:20:31;;;;;;;;;;;;;;;;;;6150212;23;20340;-84
2023/07/21 09:33:40;;;;;;;;;;;;;;;;;;6177773;22;19951;-85
2023/07/21 09:36:06;;;;;;;;;;;;;;;;;;6119382;23;19927;-85
2023/07/21 09:38:32;;;;;;;;;;;;;;;;;;6121093;23;20006;-85
2023/07/21 09:40:58;;;;;;;;;;;;;;;;;;6146984;23;19924;-85
2023/07/21 09:43:24;;;;;;;;;;;;;;;;;;6117720;23;19931;-85
2023/07/21 09:45:49;;;;;;;;;;;;;;;;;;6120017;23;20394;-84
2023/07/21 09:48:16;;;;;;;;;;;;;;;;;;6169326;23;19920;-85
2023/07/21 09:50:42;;;;;;;;;;;;;;;;;;6119545;23;19931;-85
2023/07/21 09:53:08;;;;;;;;;;;;;;;;;;6142252;23;19920;-85
2023/07/21 09:55:34;;;;;;;;;;;;;;;;;;6119107;23;19924;-85
2023/07/21 09:58:00;;;;;;;;;;;;;;;;;;6119522;23;19920;-85
2023/07/21 10:00:28;;;;;;;;;;;;;;;;;;6147999;23;19973;-85
2023/07/21 10:03:03;;;;;;;;;;;;;;;;;;6123802;23;20004;-85
2023/07/21 10:24:48;;;;;;;;;;;;;;;;;;6205776;23;19931;-84
2023/07/21 10:27:14;;;;;;;;;;;;;;;;;;6144723;23;19924;-85
2023/07/21 11:03:25;;;;;;;;;;;;;;;;;;6189895;23;19928;-86
2023/07/21 11:05:51;;;;;;;;;;;;;;;;;;6149440;23;20320;-84
2023/07/21 11:11:21;;;;;;;;;;;;;;;;;;6204391;23;19922;-84
2023/07/21 11:13:47;;;;;;;;;;;;;;;;;;6142499;23;19920;-84
2023/07/21 11:16:13;;;;;;;;;;;;;;;;;;6170549;23;19957;-84
2023/07/21 12:41:59;;;;;;;;;;;;;;;;;;;;;
2023/07/21 12:45:09;;;;;;;;;;;;;;;;;;6203298;23;19927;-84
2023/07/21 12:47:35;;;;;;;;;;;;;;;;;;6175158;23;19945;-83
2023/07/21 12:50:11;;;;;;;;;;;;;;;;;;;;;
2023/07/21 12:52:39;;;;;;;;;;;;;;;;;;6178246;23;19923;-86
2023/07/21 12:55:11;;;;;;;;;;;;;;;;;;6171644;23;20337;-87
2023/07/21 12:57:49;;;;;;;;;;;;;;;;;;6151725;23;19941;-87
2023/07/21 13:00:36;;;;;;;;;;;;;;;;;;6177621;23;19958;-87
2023/07/21 13:03:11;;;;;;;;;;;;;;;;;;6170255;23;19924;-87
2023/07/21 13:05:47;;;;;;;;;;;;;;;;;;6165951;23;20292;-88
2023/07/21 13:08:30;;;;;;;;;;;;;;;;;;6177529;23;19954;-87
2023/07/21 13:11:04;;;;;;;;;;;;;;;;;;6148136;23;19919;-87
2023/07/21 13:13:47;;;;;;;;;;;;;;;;;;;;;
2023/07/21 13:16:30;;;;;;;;;;;;;;;;;;6171008;23;19926;-87
2023/07/21 13:22:27;;;;;;;;;;;;;;;;;;6206791;23;20302;-85
2023/07/21 13:25:09;;;;;;;;;;;;;;;;;;6175512;23;20322;-86
2023/07/21 13:27:47;;;;;;;;;;;;;;;;;;6153000;23;19962;-86
2023/07/21 13:30:33;;;;;;;;;;;;;;;;;;6159290;23;19922;-85
2023/07/21 13:32:59;;;;;;;;;;;;;;;;;;6172211;23;19924;-86
2023/07/21 13:59:17;;;;;;;;;;;;;;;;;;;;;
2023/07/21 15:06:45;;;;;;;;;;;;;;;;;;6191123;22;20482;-85
2023/07/21 15:09:13;;;;;;;;;;;;;;;;;;6146107;23;19924;-86
2023/07/21 15:11:39;;;;;;;;;;;;;;;;;;6149321;23;20388;-86
2023/07/21 15:14:05;;;;;;;;;;;;;;;;;;6169498;23;19987;-86
2023/07/21 15:16:34;;;;;;;;;;;;;;;;;;6149706;23;19978;-86
2023/07/21 15:19:00;;;;;;;;;;;;;;;;;;6174301;23;20236;-86
2023/07/21 15:21:26;;;;;;;;;;;;;;;;;;6151153;23;19939;-86
2023/07/21 15:23:54;;;;;;;;;;;;;;;;;;6149830;23;19926;-86
2023/07/21 15:26:20;;;;;;;;;;;;;;;;;;6145329;23;19928;-87
2023/07/21 15:28:49;;;;;;;;;;;;;;;;;;6147040;23;20325;-86
2023/07/21 15:31:15;;;;;;;;;;;;;;;;;;6143764;23;19947;-86
2023/07/21 15:33:46;;;;;;;;;;;;;;;;;;6169651;23;20324;-87
2023/07/21 15:36:12;;;;;;;;;;;;;;;;;;6144659;23;19919;-86
2023/07/21 15:38:38;;;;;;;;;;;;;;;;;;6171717;23;19934;-88
2023/07/21 15:41:07;;;;;;;;;;;;;;;;;;6169540;23;19924;-88
2023/07/21 15:43:40;;;;;;;;;;;;;;;;;;6171690;23;19994;-89
2023/07/21 15:46:23;;;;;;;;;;;;;;;;;;;;;
2023/07/21 15:49:09;;;;;;;;;;;;;;;;;;6177436;23;19985;-89
2023/07/21 15:51:41;;;;;;;;;;;;;;;;;;6150476;23;19966;-89
2023/07/21 15:57:18;;;;;;;;;;;;;;;;;;6053761;23;19921;-90
2023/07/21 16:03:27;;;;;;;;;;;;;;;;;;6160126;23;19935;-91
2023/07/21 16:06:17;;;;;;;;;;;;;;;;;;6177654;23;19977;-91
2023/07/21 16:15:11;;;;;;;;;;;;;;;;;;6149376;23;19987;-91
2023/07/21 16:18:02;;;;;;;;;;;;;;;;;;;;;
2023/07/21 16:20:37;;;;;;;;;;;;;;;;;;5975703;23;19930;-91
2023/07/21 16:42:09;;;;;;;;;;;;;;;;;;5865120;24;19939;-90
2023/07/21 16:47:57;;;;;;;;;;;;;;;;;;6023805;23;20021;-91
2023/07/21 17:12:21;;;;;;;;;;;;;;;;;;5817731;24;19925;-92
2023/07/21 18:05:36;;;;;;;;;;;;;;;;;;6157797;23;19943;-89
2023/07/21 18:08:04;;;;;;;;;;;;;;;;;;6175544;23;19927;-88
2023/07/21 18:10:30;;;;;;;;;;;;;;;;;;6151602;23;19927;-88
2023/07/21 18:12:59;;;;;;;;;;;;;;;;;;6153232;23;20352;-90
2023/07/21 18:15:28;;;;;;;;;;;;;;;;;;6152169;23;19998;-89
2023/07/21 18:17:54;;;;;;;;;;;;;;;;;;6150948;23;20430;-90
2023/07/21 18:20:22;;;;;;;;;;;;;;;;;;6175402;23;21661;-88
2023/07/21 18:22:51;;;;;;;;;;;;;;;;;;6204916;23;19919;-88
2023/07/21 18:25:25;;;;;;;;;;;;;;;;;;6178432;23;20360;-88
2023/07/21 18:27:53;;;;;;;;;;;;;;;;;;6181135;23;19916;-89
2023/07/21 18:30:19;;;;;;;;;;;;;;;;;;6176626;23;20427;-88
2023/07/21 18:32:53;;;;;;;;;;;;;;;;;;6180881;23;19919;-87
2023/07/21 18:35:26;;;;;;;;;;;;;;;;;;6202504;23;20303;-88
2023/07/21 18:37:54;;;;;;;;;;;;;;;;;;6181317;23;20277;-88
2023/07/21 18:40:20;;;;;;;;;;;;;;;;;;6200224;23;19931;-88
2023/07/21 18:42:49;;;;;;;;;;;;;;;;;;6178061;23;19926;-89
2023/07/21 18:45:15;;;;;;;;;;;;;;;;;;6200412;23;20396;-89
2023/07/21 18:47:41;;;;;;;;;;;;;;;;;;6179988;23;19926;-89
2023/07/21 18:50:09;;;;;;;;;;;;;;;;;;6170439;23;19926;-89
2023/07/21 18:52:35;;;;;;;;;;;;;;;;;;6198429;23;20337;-89
2023/07/21 18:55:04;;;;;;;;;;;;;;;;;;6169392;23;19920;-89
2023/07/21 18:57:35;;;;;;;;;;;;;;;;;;6173216;23;20362;-89
2023/07/21 19:00:22;;;;;;;;;;;;;;;;;;6194911;23;19920;-89
2023/07/21 19:02:48;;;;;;;;;;;;;;;;;;6174006;23;19958;-89
2023/07/21 19:05:26;;;;;;;;;;;;;;;;;;6196816;23;20012;-89
2023/07/21 19:08:13;;;;;;;;;;;;;;;;;;6202679;23;19920;-89
2023/07/21 19:13:57;;;;;;;;;;;;;;;;;;6087210;23;20312;-89
2023/07/21 19:26:44;;;;;;;;;;;;;;;;;;5871603;24;19923;-90
2023/07/21 19:29:55;;;;;;;;;;;;;;;;;;;;;
2023/07/21 19:41:22;;;;;;;;;;;;;;;;;;;;;
2023/07/21 19:46:52;;;;;;;;;;;;;;;;;;5885776;24;19927;-90
2023/07/21 19:58:58;;;;;;;;;;;;;;;;;;6198727;23;19916;-89
2023/07/21 20:30:19;;;;;;;;;;;;;;;;;;6195318;22;19924;-91
2023/07/21 20:32:50;;;;;;;;;;;;;;;;;;6177315;23;19942;-92
2023/07/21 21:38:15;;;;;;;;;;;;;;;;;;6224013;22;19950;-86
2023/07/21 21:41:10;;;;;;;;;;;;;;;;;;6202706;23;19934;-86
2023/07/21 21:43:42;;;;;;;;;;;;;;;;;;6179206;23;19919;-86
2023/07/21 21:49:26;;;;;;;;;;;;;;;;;;6241454;23;20286;-86
2023/07/21 21:52:04;;;;;;;;;;;;;;;;;;6178037;23;19926;-86
2023/07/21 21:58:00;;;;;;;;;;;;;;;;;;;;;
2023/07/21 22:00:40;;;;;;;;;;;;;;;;;;6112135;23;19924;-86
2023/07/21 22:05:58;;;;;;;;;;;;;;;;;;6114310;23;19920;-86
2023/07/21 22:14:28;;;;;;;;;;;;;;;;;;6200561;23;19919;-87
2023/07/21 22:17:08;;;;;;;;;;;;;;;;;;;;;
2023/07/21 22:19:36;;;;;;;;;;;;;;;;;;6203982;23;19920;-87
2023/07/21 22:22:11;;;;;;;;;;;;;;;;;;6170499;23;19924;-87
2023/07/21 22:24:37;;;;;;;;;;;;;;;;;;6141943;23;19920;-87
2023/07/21 22:27:06;;;;;;;;;;;;;;;;;;6138812;23;19927;-87
2023/07/21 22:29:34;;;;;;;;;;;;;;;;;;6085881;23;19917;-87
2023/07/21 22:32:09;;;;;;;;;;;;;;;;;;6060741;23;19921;-87
2023/07/21 22:34:40;;;;;;;;;;;;;;;;;;6065387;23;20378;-87
2023/07/21 22:37:21;;;;;;;;;;;;;;;;;;;;;
2023/07/21 22:40:04;;;;;;;;;;;;;;;;;;6024494;23;19932;-87
2023/07/21 22:42:38;;;;;;;;;;;;;;;;;;6034027;23;19948;-87
2023/07/21 22:45:06;;;;;;;;;;;;;;;;;;6031662;23;19921;-87
2023/07/21 22:47:41;;;;;;;;;;;;;;;;;;6059628;23;19924;-86
2023/07/21 22:50:25;;;;;;;;;;;;;;;;;;6109843;23;19920;-87
2023/07/21 22:53:01;;;;;;;;;;;;;;;;;;6113572;23;19921;-87
2023/07/21 22:55:48;;;;;;;;;;;;;;;;;;6091725;23;19988;-86
2023/07/21 22:58:38;;;;;;;;;;;;;;;;;;6054677;23;19918;-87
2023/07/21 23:01:19;;;;;;;;;;;;;;;;;;6079350;23;19936;-87
2023/07/21 23:04:08;;;;;;;;;;;;;;;;;;6055805;23;19921;-87
2023/07/21 23:06:52;;;;;;;;;;;;;;;;;;6062986;23;19917;-87
2023/07/21 23:09:26;;;;;;;;;;;;;;;;;;6056725;23;19992;-87
2023/07/21 23:12:03;;;;;;;;;;;;;;;;;;6084414;23;19971;-86
2023/07/21 23:14:58;;;;;;;;;;;;;;;;;;6082399;23;19921;-87
2023/07/21 23:18:14;;;;;;;;;;;;;;;;;;6096156;23;20408;-87
2023/07/21 23:20:40;;;;;;;;;;;;;;;;;;6081667;23;19959;-86
2023/07/21 23:23:33;;;;;;;;;;;;;;;;;;6023004;23;19922;-86
2023/07/21 23:26:15;;;;;;;;;;;;;;;;;;;;;
2023/07/21 23:31:43;;;;;;;;;;;;;;;;;;;;;
2023/07/21 23:34:33;;;;;;;;;;;;;;;;;;6112628;23;19921;-86
2023/07/21 23:37:12;;;;;;;;;;;;;;;;;;6123310;23;20367;-86
2023/07/21 23:39:38;;;;;;;;;;;;;;;;;;6145265;23;19995;-86
2023/07/21 23:42:04;;;;;;;;;;;;;;;;;;6142039;23;20334;-86
2023/07/21 23:44:33;;;;;;;;;;;;;;;;;;6143324;23;19920;-87
2023/07/21 23:47:02;;;;;;;;;;;;;;;;;;6123460;23;19932;-87
2023/07/21 23:49:28;;;;;;;;;;;;;;;;;;6147374;23;19916;-86
2023/07/21 23:51:54;;;;;;;;;;;;;;;;;;6145535;23;19988;-86
2023/07/21 23:54:20;;;;;;;;;;;;;;;;;;6140861;23;20626;-86
2023/07/21 23:56:46;;;;;;;;;;;;;;;;;;6145823;23;19951;-86
2023/07/21 23:59:12;;;;;;;;;;;;;;;;;;6143171;23;19927;-87
